KDVP

Slayton Municipal Airport

Slayton, Minnesota, USA
METAR KDVP 201559Z AUTO 36009G14KT 10SM SCT030 SCT041 OVC090 18/16 A2998 RMK AO2
Observed Flight Rules
Aug-20 @ 15:59 UTC (23 minutes ago) Visual Flight Rules
Wind Visibility Clouds
360° at 9 knots
 Gusting to 14 knots
10 miles
  • Scattered at 3,000' AGL
  • Scattered at 4,100' AGL
  • Overcast at 9,000' AGL
Temperatures Readings
Current 18°C / 64°F
Dewpoint 16°C / 61°F
Humidity 88%
Altimeter 29.98" Hg
Pressure 1015 hPa
Elevation 495
METAR KDVP 201559Z AUTO 36009G14KT 10SM SCT030 SCT041 OVC090 18/16 A2998 RMK AO2
Observed Flight Rules
Aug-20 @ 15:59 UTC
(23 minutes ago)
VFR
Wind Visibility
360° at 9 knots
 Gusting to 14 knots
10 miles
Clouds
  • Scattered at 3,000' AGL
  • Scattered at 4,100' AGL
  • Overcast at 9,000' AGL
Temperature Dewpoint
18°C / 64°F 16°C / 61°F
Humidity Altimeter Pressure
88% 29.98" Hg 1015 hPa